Home > Products > Valid Products > TAF

000
FTUS43 KIWX 312320
TAFFWA
TAF
KFWA 312320Z 0100/0124 23003KT P6SM FEW040
     FM010700 23003KT 4SM BR SCT020
      TEMPO 0110/0112 2SM BR
     FM011400 23008KT P6SM SCT035=



000
FTUS43 KIWX 311722
TAFFWA
TAF
KFWA 311722Z 3118/0118 24006KT P6SM BKN040
     FM312300 22003KT P6SM FEW040
     FM010700 23003KT 4SM BR SCT020
      TEMPO 0110/0112 2SM BR
     FM011400 23008KT P6SM SCT035=



000
FTUS43 KIWX 311722
TAFFWA
TAF
KFWA 311722Z 3118/0118 24006KT P6SM BKN040
     FM312300 22003KT P6SM FEW040
     FM010700 23003KT 4SM BR SCT020
      TEMPO 0110/0112 2SM BR
     FM011400 23008KT P6SM SCT035=



000
FTUS43 KIWX 311135
TAFFWA
TAF
KFWA 311135Z 3112/0112 00000KT 5SM BR SCT006
      TEMPO 3112/3114 2SM BR BKN006
     FM311400 VRB03KT 4SM BR BKN015
     FM311500 23003KT P6SM BKN025
     FM311700 23006KT P6SM SCT035
     FM010700 23003KT 4SM BR SCT050=



000
FTUS43 KIWX 310520
TAFFWA
TAF
KFWA 310520Z 3106/0106 00000KT 3SM BR SKC
     FM310700 00000KT 2SM BR SCT006
      TEMPO 3109/3113 1/2SM FG BKN002
     FM311300 VRB03KT 4SM BR SCT006 BKN015
     FM311500 23003KT P6SM BKN020
     FM311700 23007KT P6SM SCT030=



000
FTUS43 KIWX 310520
TAFFWA
TAF
KFWA 310520Z 3106/0106 00000KT 3SM BR SKC
     FM310700 00000KT 2SM BR SCT006
      TEMPO 3109/3113 1/2SM FG BKN002
     FM311300 VRB03KT 4SM BR SCT006 BKN015
     FM311500 23003KT P6SM BKN020
     FM311700 23007KT P6SM SCT030=



000
FTUS43 KIWX 302328
TAFFWA
TAF
KFWA 302328Z 3100/3124 25003KT P6SM SCT040
     FM310900 00000KT 3SM BR BKN020
      TEMPO 3110/3112 1SM BR BKN008
     FM311500 23007KT P6SM SCT030=



000
FTUS43 KIWX 302328
TAFFWA
TAF
KFWA 302328Z 3100/3124 25003KT P6SM SCT040
     FM310900 00000KT 3SM BR BKN020
      TEMPO 3110/3112 1SM BR BKN008
     FM311500 23007KT P6SM SCT030=



000
FTUS43 KIWX 301828 CCA
TAFFWA
TAF COR
KFWA 301828Z 3018/3118 23008KT P6SM SCT035 BKN140
     FM302300 23002KT P6SM SCT040
     FM310900 00000KT 5SM BR BKN010
      TEMPO 3110/3112 2SM BR BKN006=



000
FTUS43 KIWX 301739
TAFFWA
TAF
KFWA 301739Z 3018/3118 23008KT 5SM BR SCT035 BKN140
     FM302300 23002KT P6SM SCT040
     FM310900 00000KT 5SM BR BKN010
      TEMPO 3110/3112 2SM BR BKN006=



000
FTUS43 KIWX 301739
TAFFWA
TAF
KFWA 301739Z 3018/3118 23008KT 5SM BR SCT035 BKN140
     FM302300 23002KT P6SM SCT040
     FM310900 00000KT 5SM BR BKN010
      TEMPO 3110/3112 2SM BR BKN006=



000
FTUS43 KIWX 301132
TAFFWA
TAF
KFWA 301132Z 3012/3112 19004KT 5SM BR SCT050 BKN100
     FM301300 23008KT P6SM BKN040
     FM310900 22004KT 5SM BR SCT025
      TEMPO 3110/3112 2SM BR=



000
FTUS43 KIWX 301055 AAC
TAFFWA
TAF AMD
KFWA 301055Z 3011/3106 VRB03KT 6SM BR BKN070
      TEMPO 3011/3013 3SM BR FEW005
     FM301400 22007KT P6SM BKN040
     FM310100 22004KT P6SM SCT040=



000
FTUS43 KIWX 300926 AAB
TAFFWA
TAF AMD
KFWA 300926Z 3009/3106 VRB03KT 5SM BR SCT005 BKN070
      TEMPO 3010/3013 2SM BR
     FM301400 22007KT P6SM BKN040
     FM310100 22004KT P6SM SCT040=



000
FTUS43 KIWX 300800 AAA
TAFFWA
TAF AMD
KFWA 300800Z 3008/3106 VRB03KT 2SM BR SCT002 BKN050
      TEMPO 3010/3012 3/4SM BR BKN002
     FM301400 22007KT P6SM BKN040
     FM310100 22004KT P6SM SCT040=



000
FTUS43 KIWX 300800 AAA
TAFFWA
TAF AMD
KFWA 300800Z 3008/3106 VRB03KT 2SM BR SCT002 BKN050
      TEMPO 3010/3012 3/4SM BR BKN002
     FM301400 22007KT P6SM BKN040
     FM310100 22004KT P6SM SCT040=



000
FTUS43 KIWX 300524
TAFFWA
TAF
KFWA 300524Z 3006/3106 18004KT 6SM BR VCSH SCT035 OVC080
      TEMPO 3006/3008 4SM -SHRA OVC035
     FM301000 VRB03KT 4SM BR OVC050
     FM301400 22007KT P6SM BKN040
     FM310100 22004KT P6SM SCT040=



000
FTUS43 KIWX 300524
TAFFWA
TAF
KFWA 300524Z 3006/3106 18004KT 6SM BR VCSH SCT035 OVC080
      TEMPO 3006/3008 4SM -SHRA OVC035
     FM301000 VRB03KT 4SM BR OVC050
     FM301400 22007KT P6SM BKN040
     FM310100 22004KT P6SM SCT040=



000
FTUS43 KIWX 292320
TAFFWA
TAF
KFWA 292320Z 3000/3024 16003KT P6SM -SHRA BKN080
      TEMPO 3000/3004 4SM SHRA BKN040
     FM300400 18003KT 4SM BR VCSH BKN040
     FM301400 22008KT P6SM SCT035=



000
FTUS43 KIWX 292320
TAFFWA
TAF
KFWA 292320Z 3000/3024 16003KT P6SM -SHRA BKN080
      TEMPO 3000/3004 4SM SHRA BKN040
     FM300400 18003KT 4SM BR VCSH BKN040
     FM301400 22008KT P6SM BKN040=



000
FTUS43 KIWX 292320
TAFFWA
TAF
KFWA 292320Z 3000/3024 16003KT P6SM -SHRA BKN080
      TEMPO 3000/3004 4SM SHRA BKN040
     FM300400 18003KT 4SM BR VCSH BKN040
     FM301400 22008KT P6SM BKN040=



000
FTUS43 KIWX 292320
TAFFWA
TAF
KFWA 292320Z 3000/3024 16003KT P6SM -SHRA BKN080
      TEMPO 3000/3004 4SM SHRA BKN040
     FM300400 18003KT 4SM BR VCSH BKN040
     FM301400 22008KT P6SM SCT035=



000
FTUS43 KIWX 291736
TAFFWA
TAF
KFWA 291736Z 2918/3018 20007KT P6SM VCSH BKN070
      TEMPO 2921/3001 6SM -SHRA BKN040
     FM300400 16003KT 4SM BR VCSH BKN040
     FM301400 21006KT P6SM SCT035=



000
FTUS43 KIWX 291736
TAFFWA
TAF
KFWA 291736Z 2918/3018 20007KT P6SM VCSH BKN070
      TEMPO 2921/3001 6SM -SHRA BKN040
     FM300400 16003KT 4SM BR VCSH BKN040
     FM301400 21006KT P6SM SCT035=



000
FTUS43 KIWX 291125
TAFFWA
TAF
KFWA 291125Z 2912/3012 15005KT P6SM BKN050 OVC150
     FM291800 20007KT P6SM VCSH BKN050 OVC100
      TEMPO 2921/3001 SHRA OVC040
     FM300300 16003KT 6SM BR BKN040=



000
FTUS43 KIWX 291125
TAFFWA
TAF
KFWA 291125Z 2912/3012 15005KT P6SM BKN050 OVC150
     FM291800 20007KT P6SM VCSH BKN050 OVC100
      TEMPO 2921/3001 SHRA OVC040
     FM300300 16003KT 6SM BR BKN040=



000
FTUS43 KIWX 290520
TAFFWA
TAF
KFWA 290520Z 2906/3006 13003KT P6SM SCT120 OVC200
      TEMPO 2911/2913 5SM BR
     FM291600 18006KT P6SM SCT050 BKN120=



000
FTUS43 KIWX 290520
TAFFWA
TAF
KFWA 290520Z 2906/3006 13003KT P6SM SCT120 OVC200
      TEMPO 2911/2913 5SM BR
     FM291600 18006KT P6SM SCT050 BKN120=



    US Dept of Commerce
    National Oceanic and Atmospheric Administration
    National Weather Service
    1325 East West Highway
    Silver Spring, MD 20910
    Page Author: NWS Internet Services Team
Disclaimer
Information Quality
Credits
Glossary
Privacy Policy
Freedom of Information Act (FOIA)
About Us
Career Opportunities